sensor_id;sensor_type;location;lat;lon;timestamp;P1;durP1;ratioP1;P2;durP2;ratioP2
30892;SDS011;17595;50.884;4.346;2022-10-23T00:01:23;12.88;;;5.25;;
30892;SDS011;17595;50.884;4.346;2022-10-23T00:03:51;12.18;;;4.75;;
30892;SDS011;17595;50.884;4.346;2022-10-23T00:06:21;9.77;;;4.50;;
30892;SDS011;17595;50.884;4.346;2022-10-23T00:08:48;13.23;;;4.78;;
30892;SDS011;17595;50.884;4.346;2022-10-23T00:11:15;14.52;;;4.93;;
30892;SDS011;17595;50.884;4.346;2022-10-23T00:13:42;11.38;;;4.57;;
30892;SDS011;17595;50.884;4.346;2022-10-23T00:16:09;11.45;;;4.30;;
30892;SDS011;17595;50.884;4.346;2022-10-23T00:18:35;13.07;;;5.18;;
30892;SDS011;17595;50.884;4.346;2022-10-23T00:21:01;10.48;;;4.93;;
30892;SDS011;17595;50.884;4.346;2022-10-23T00:23:27;9.95;;;4.95;;
30892;SDS011;17595;50.884;4.346;2022-10-23T00:25:53;12.88;;;5.05;;
30892;SDS011;17595;50.884;4.346;2022-10-23T00:28:18;13.15;;;5.13;;
30892;SDS011;17595;50.884;4.346;2022-10-23T00:30:44;14.45;;;5.28;;
30892;SDS011;17595;50.884;4.346;2022-10-23T00:33:09;12.98;;;4.53;;
30892;SDS011;17595;50.884;4.346;2022-10-23T00:35:38;11.18;;;4.50;;
30892;SDS011;17595;50.884;4.346;2022-10-23T00:38:05;11.00;;;4.40;;
30892;SDS011;17595;50.884;4.346;2022-10-23T00:40:30;10.30;;;4.10;;
30892;SDS011;17595;50.884;4.346;2022-10-23T00:42:56;8.82;;;4.32;;
30892;SDS011;17595;50.884;4.346;2022-10-23T00:45:23;10.45;;;3.90;;
30892;SDS011;17595;50.884;4.346;2022-10-23T00:47:51;14.07;;;4.55;;
30892;SDS011;17595;50.884;4.346;2022-10-23T00:50:18;9.85;;;4.30;;
30892;SDS011;17595;50.884;4.346;2022-10-23T00:52:48;8.73;;;3.95;;
30892;SDS011;17595;50.884;4.346;2022-10-23T00:55:18;10.25;;;4.47;;
30892;SDS011;17595;50.884;4.346;2022-10-23T00:57:47;8.90;;;4.07;;
30892;SDS011;17595;50.884;4.346;2022-10-23T01:00:15;12.13;;;4.57;;
30892;SDS011;17595;50.884;4.346;2022-10-23T01:02:49;10.55;;;4.03;;
30892;SDS011;17595;50.884;4.346;2022-10-23T01:05:16;11.05;;;3.90;;
30892;SDS011;17595;50.884;4.346;2022-10-23T01:08:00;8.75;;;3.65;;
30892;SDS011;17595;50.884;4.346;2022-10-23T01:10:33;12.13;;;3.63;;
30892;SDS011;17595;50.884;4.346;2022-10-23T01:13:10;9.80;;;3.42;;
30892;SDS011;17595;50.884;4.346;2022-10-23T01:15:42;11.32;;;3.35;;
30892;SDS011;17595;50.884;4.346;2022-10-23T01:18:19;7.60;;;3.03;;
30892;SDS011;17595;50.884;4.346;2022-10-23T01:21:01;7.63;;;2.88;;
30892;SDS011;17595;50.884;4.346;2022-10-23T01:29:15;6.43;;;2.75;;
30892;SDS011;17595;50.884;4.346;2022-10-23T01:31:51;11.15;;;2.80;;
30892;SDS011;17595;50.884;4.346;2022-10-23T01:37:03;12.90;;;3.65;;
30892;SDS011;17595;50.884;4.346;2022-10-23T01:39:35;5.35;;;2.63;;
30892;SDS011;17595;50.884;4.346;2022-10-23T01:42:06;7.18;;;2.28;;
30892;SDS011;17595;50.884;4.346;2022-10-23T01:47:06;7.40;;;2.58;;
30892;SDS011;17595;50.884;4.346;2022-10-23T01:49:34;7.10;;;2.70;;
30892;SDS011;17595;50.884;4.346;2022-10-23T01:52:04;5.47;;;2.83;;
30892;SDS011;17595;50.884;4.346;2022-10-23T01:54:32;8.32;;;2.80;;
30892;SDS011;17595;50.884;4.346;2022-10-23T01:57:02;7.13;;;2.85;;
30892;SDS011;17595;50.884;4.346;2022-10-23T01:59:32;7.57;;;2.30;;
30892;SDS011;17595;50.884;4.346;2022-10-23T02:02:01;5.18;;;2.15;;
30892;SDS011;17595;50.884;4.346;2022-10-23T02:04:30;5.90;;;2.78;;
30892;SDS011;17595;50.884;4.346;2022-10-23T02:07:00;7.00;;;2.50;;
30892;SDS011;17595;50.884;4.346;2022-10-23T02:09:25;9.35;;;2.30;;
30892;SDS011;17595;50.884;4.346;2022-10-23T02:12:00;4.28;;;2.17;;
30892;SDS011;17595;50.884;4.346;2022-10-23T02:14:50;8.15;;;2.38;;
30892;SDS011;17595;50.884;4.346;2022-10-23T02:17:23;5.88;;;2.20;;
30892;SDS011;17595;50.884;4.346;2022-10-23T02:19:59;10.90;;;2.38;;
30892;SDS011;17595;50.884;4.346;2022-10-23T02:22:39;9.13;;;2.58;;
30892;SDS011;17595;50.884;4.346;2022-10-23T02:25:11;5.07;;;2.05;;
30892;SDS011;17595;50.884;4.346;2022-10-23T02:27:44;4.50;;;2.15;;
30892;SDS011;17595;50.884;4.346;2022-10-23T02:32:50;3.80;;;2.05;;
30892;SDS011;17595;50.884;4.346;2022-10-23T02:35:19;11.32;;;2.45;;
30892;SDS011;17595;50.884;4.346;2022-10-23T02:37:51;6.20;;;2.13;;
30892;SDS011;17595;50.884;4.346;2022-10-23T02:40:21;7.30;;;2.10;;
30892;SDS011;17595;50.884;4.346;2022-10-23T02:42:57;11.77;;;2.25;;
30892;SDS011;17595;50.884;4.346;2022-10-23T02:45:34;5.78;;;2.08;;
30892;SDS011;17595;50.884;4.346;2022-10-23T02:48:18;8.10;;;2.37;;
30892;SDS011;17595;50.884;4.346;2022-10-23T02:50:55;4.10;;;2.10;;
30892;SDS011;17595;50.884;4.346;2022-10-23T02:59:07;4.75;;;1.75;;
30892;SDS011;17595;50.884;4.346;2022-10-23T03:01:54;6.18;;;2.10;;
30892;SDS011;17595;50.884;4.346;2022-10-23T03:04:26;5.53;;;2.15;;
30892;SDS011;17595;50.884;4.346;2022-10-23T03:06:53;4.57;;;1.77;;
30892;SDS011;17595;50.884;4.346;2022-10-23T03:09:19;9.85;;;1.90;;
30892;SDS011;17595;50.884;4.346;2022-10-23T03:11:45;5.28;;;2.00;;
30892;SDS011;17595;50.884;4.346;2022-10-23T03:14:11;8.18;;;2.47;;
30892;SDS011;17595;50.884;4.346;2022-10-23T03:16:37;3.75;;;2.25;;
30892;SDS011;17595;50.884;4.346;2022-10-23T03:19:03;6.03;;;2.50;;
30892;SDS011;17595;50.884;4.346;2022-10-23T03:21:28;7.28;;;2.50;;
30892;SDS011;17595;50.884;4.346;2022-10-23T03:23:54;8.77;;;2.58;;
30892;SDS011;17595;50.884;4.346;2022-10-23T03:26:20;8.63;;;2.45;;
30892;SDS011;17595;50.884;4.346;2022-10-23T03:28:45;4.40;;;2.00;;
30892;SDS011;17595;50.884;4.346;2022-10-23T03:31:11;6.45;;;2.15;;
30892;SDS011;17595;50.884;4.346;2022-10-23T03:33:36;5.32;;;2.30;;
30892;SDS011;17595;50.884;4.346;2022-10-23T03:36:02;9.45;;;2.50;;
30892;SDS011;17595;50.884;4.346;2022-10-23T03:38:28;7.70;;;2.28;;
30892;SDS011;17595;50.884;4.346;2022-10-23T03:40:53;4.22;;;1.90;;
30892;SDS011;17595;50.884;4.346;2022-10-23T03:43:19;6.50;;;2.17;;
30892;SDS011;17595;50.884;4.346;2022-10-23T03:45:44;6.72;;;2.15;;
30892;SDS011;17595;50.884;4.346;2022-10-23T03:48:10;5.78;;;2.20;;
30892;SDS011;17595;50.884;4.346;2022-10-23T03:50:36;5.88;;;2.17;;
30892;SDS011;17595;50.884;4.346;2022-10-23T03:53:01;6.15;;;2.08;;
30892;SDS011;17595;50.884;4.346;2022-10-23T03:55:27;6.53;;;1.83;;
30892;SDS011;17595;50.884;4.346;2022-10-23T03:57:53;5.18;;;1.98;;
30892;SDS011;17595;50.884;4.346;2022-10-23T04:00:19;5.05;;;2.30;;
30892;SDS011;17595;50.884;4.346;2022-10-23T04:02:45;5.22;;;1.83;;
30892;SDS011;17595;50.884;4.346;2022-10-23T04:05:11;8.40;;;2.08;;
30892;SDS011;17595;50.884;4.346;2022-10-23T04:07:36;5.35;;;2.20;;
30892;SDS011;17595;50.884;4.346;2022-10-23T04:10:02;6.53;;;2.00;;
30892;SDS011;17595;50.884;4.346;2022-10-23T04:12:29;6.43;;;1.85;;
30892;SDS011;17595;50.884;4.346;2022-10-23T04:14:54;3.42;;;2.20;;
30892;SDS011;17595;50.884;4.346;2022-10-23T04:17:20;4.68;;;1.98;;
30892;SDS011;17595;50.884;4.346;2022-10-23T04:19:45;5.15;;;2.38;;
30892;SDS011;17595;50.884;4.346;2022-10-23T04:22:11;7.95;;;2.10;;
30892;SDS011;17595;50.884;4.346;2022-10-23T04:24:37;4.97;;;2.03;;
30892;SDS011;17595;50.884;4.346;2022-10-23T04:27:02;4.38;;;2.38;;
30892;SDS011;17595;50.884;4.346;2022-10-23T04:29:28;4.25;;;2.00;;
30892;SDS011;17595;50.884;4.346;2022-10-23T04:31:56;4.88;;;2.20;;
30892;SDS011;17595;50.884;4.346;2022-10-23T04:34:21;5.82;;;2.03;;
30892;SDS011;17595;50.884;4.346;2022-10-23T04:36:47;3.83;;;1.80;;
30892;SDS011;17595;50.884;4.346;2022-10-23T04:39:13;5.22;;;2.50;;
30892;SDS011;17595;50.884;4.346;2022-10-23T04:41:39;4.25;;;1.73;;
30892;SDS011;17595;50.884;4.346;2022-10-23T04:44:05;6.43;;;2.30;;
30892;SDS011;17595;50.884;4.346;2022-10-23T04:46:31;5.47;;;2.40;;
30892;SDS011;17595;50.884;4.346;2022-10-23T04:48:56;2.78;;;1.80;;
30892;SDS011;17595;50.884;4.346;2022-10-23T04:51:22;5.07;;;2.28;;
30892;SDS011;17595;50.884;4.346;2022-10-23T04:53:48;7.20;;;2.30;;
30892;SDS011;17595;50.884;4.346;2022-10-23T04:56:13;9.68;;;2.72;;
30892;SDS011;17595;50.884;4.346;2022-10-23T04:58:40;4.60;;;2.03;;
30892;SDS011;17595;50.884;4.346;2022-10-23T05:01:06;8.90;;;2.60;;
30892;SDS011;17595;50.884;4.346;2022-10-23T05:03:34;4.45;;;2.15;;
30892;SDS011;17595;50.884;4.346;2022-10-23T05:06:00;5.72;;;2.25;;
30892;SDS011;17595;50.884;4.346;2022-10-23T05:08:26;7.40;;;2.90;;
30892;SDS011;17595;50.884;4.346;2022-10-23T05:10:51;4.22;;;2.20;;
30892;SDS011;17595;50.884;4.346;2022-10-23T05:13:17;10.60;;;2.38;;
30892;SDS011;17595;50.884;4.346;2022-10-23T05:15:44;4.80;;;2.20;;
30892;SDS011;17595;50.884;4.346;2022-10-23T05:18:28;2.72;;;1.92;;
30892;SDS011;17595;50.884;4.346;2022-10-23T05:20:56;3.47;;;2.20;;
30892;SDS011;17595;50.884;4.346;2022-10-23T05:23:26;5.88;;;2.33;;
30892;SDS011;17595;50.884;4.346;2022-10-23T05:25:53;3.95;;;2.00;;
30892;SDS011;17595;50.884;4.346;2022-10-23T05:28:19;5.65;;;2.38;;
30892;SDS011;17595;50.884;4.346;2022-10-23T05:30:45;5.90;;;2.22;;
30892;SDS011;17595;50.884;4.346;2022-10-23T05:33:10;8.00;;;2.40;;
30892;SDS011;17595;50.884;4.346;2022-10-23T05:35:36;3.90;;;2.42;;
30892;SDS011;17595;50.884;4.346;2022-10-23T05:38:02;4.90;;;2.25;;
30892;SDS011;17595;50.884;4.346;2022-10-23T05:40:30;4.22;;;1.90;;
30892;SDS011;17595;50.884;4.346;2022-10-23T05:42:56;4.93;;;2.33;;
30892;SDS011;17595;50.884;4.346;2022-10-23T05:45:22;6.25;;;2.78;;
30892;SDS011;17595;50.884;4.346;2022-10-23T05:47:47;2.42;;;2.03;;
30892;SDS011;17595;50.884;4.346;2022-10-23T05:50:13;8.00;;;3.05;;
30892;SDS011;17595;50.884;4.346;2022-10-23T05:52:39;4.43;;;2.28;;
30892;SDS011;17595;50.884;4.346;2022-10-23T05:55:04;5.30;;;2.30;;
30892;SDS011;17595;50.884;4.346;2022-10-23T05:57:31;4.82;;;2.92;;
30892;SDS011;17595;50.884;4.346;2022-10-23T05:59:57;3.72;;;2.50;;
30892;SDS011;17595;50.884;4.346;2022-10-23T06:02:23;9.85;;;2.53;;
30892;SDS011;17595;50.884;4.346;2022-10-23T06:04:48;4.88;;;2.50;;
30892;SDS011;17595;50.884;4.346;2022-10-23T06:07:14;8.48;;;2.65;;
30892;SDS011;17595;50.884;4.346;2022-10-23T06:09:40;3.65;;;2.10;;
30892;SDS011;17595;50.884;4.346;2022-10-23T06:12:05;6.00;;;2.63;;
30892;SDS011;17595;50.884;4.346;2022-10-23T06:14:31;5.35;;;2.20;;
30892;SDS011;17595;50.884;4.346;2022-10-23T06:16:57;5.90;;;2.40;;
30892;SDS011;17595;50.884;4.346;2022-10-23T06:19:22;5.88;;;2.40;;
30892;SDS011;17595;50.884;4.346;2022-10-23T06:21:48;5.22;;;2.70;;
30892;SDS011;17595;50.884;4.346;2022-10-23T06:24:13;6.15;;;2.72;;
30892;SDS011;17595;50.884;4.346;2022-10-23T06:26:39;5.03;;;2.65;;
30892;SDS011;17595;50.884;4.346;2022-10-23T06:29:04;11.23;;;2.40;;
30892;SDS011;17595;50.884;4.346;2022-10-23T06:31:30;5.55;;;2.33;;
30892;SDS011;17595;50.884;4.346;2022-10-23T06:33:56;5.93;;;2.40;;
30892;SDS011;17595;50.884;4.346;2022-10-23T06:36:23;4.90;;;2.60;;
30892;SDS011;17595;50.884;4.346;2022-10-23T06:38:49;5.18;;;2.20;;
30892;SDS011;17595;50.884;4.346;2022-10-23T06:41:16;5.72;;;2.08;;
30892;SDS011;17595;50.884;4.346;2022-10-23T06:43:45;8.35;;;2.30;;
30892;SDS011;17595;50.884;4.346;2022-10-23T06:46:12;8.63;;;2.55;;
30892;SDS011;17595;50.884;4.346;2022-10-23T06:48:39;7.28;;;2.35;;
30892;SDS011;17595;50.884;4.346;2022-10-23T06:51:07;7.72;;;2.35;;
30892;SDS011;17595;50.884;4.346;2022-10-23T06:53:33;3.75;;;2.05;;
30892;SDS011;17595;50.884;4.346;2022-10-23T06:56:00;5.35;;;2.20;;
30892;SDS011;17595;50.884;4.346;2022-10-23T06:58:27;3.25;;;1.92;;
30892;SDS011;17595;50.884;4.346;2022-10-23T07:00:53;6.60;;;2.25;;
30892;SDS011;17595;50.884;4.346;2022-10-23T07:03:19;7.35;;;2.22;;
30892;SDS011;17595;50.884;4.346;2022-10-23T07:05:44;3.30;;;1.55;;
30892;SDS011;17595;50.884;4.346;2022-10-23T07:08:11;4.53;;;2.30;;
30892;SDS011;17595;50.884;4.346;2022-10-23T07:10:38;4.13;;;2.13;;
30892;SDS011;17595;50.884;4.346;2022-10-23T07:13:06;8.38;;;2.22;;
30892;SDS011;17595;50.884;4.346;2022-10-23T07:15:33;4.97;;;1.90;;
30892;SDS011;17595;50.884;4.346;2022-10-23T07:17:58;4.45;;;2.13;;
30892;SDS011;17595;50.884;4.346;2022-10-23T07:20:24;4.43;;;2.10;;
30892;SDS011;17595;50.884;4.346;2022-10-23T07:22:50;2.45;;;1.90;;
30892;SDS011;17595;50.884;4.346;2022-10-23T07:25:23;4.60;;;2.60;;
30892;SDS011;17595;50.884;4.346;2022-10-23T07:27:50;6.60;;;2.38;;
30892;SDS011;17595;50.884;4.346;2022-10-23T07:30:16;2.53;;;1.98;;
30892;SDS011;17595;50.884;4.346;2022-10-23T07:32:42;5.80;;;2.80;;
30892;SDS011;17595;50.884;4.346;2022-10-23T07:35:09;7.32;;;2.60;;
30892;SDS011;17595;50.884;4.346;2022-10-23T07:37:36;5.97;;;2.58;;
30892;SDS011;17595;50.884;4.346;2022-10-23T07:40:02;3.90;;;2.00;;
30892;SDS011;17595;50.884;4.346;2022-10-23T07:42:28;8.07;;;2.05;;
30892;SDS011;17595;50.884;4.346;2022-10-23T07:44:54;5.13;;;2.08;;
30892;SDS011;17595;50.884;4.346;2022-10-23T07:47:19;6.82;;;2.50;;
30892;SDS011;17595;50.884;4.346;2022-10-23T07:49:46;4.57;;;2.13;;
30892;SDS011;17595;50.884;4.346;2022-10-23T07:52:12;4.45;;;2.33;;
30892;SDS011;17595;50.884;4.346;2022-10-23T07:54:37;5.10;;;2.10;;
30892;SDS011;17595;50.884;4.346;2022-10-23T07:57:03;5.88;;;2.10;;
30892;SDS011;17595;50.884;4.346;2022-10-23T07:59:28;5.43;;;2.42;;
30892;SDS011;17595;50.884;4.346;2022-10-23T08:01:54;4.68;;;1.98;;
30892;SDS011;17595;50.884;4.346;2022-10-23T08:04:20;5.07;;;2.10;;
30892;SDS011;17595;50.884;4.346;2022-10-23T08:06:46;6.50;;;2.22;;
30892;SDS011;17595;50.884;4.346;2022-10-23T08:09:13;3.65;;;2.00;;
30892;SDS011;17595;50.884;4.346;2022-10-23T08:11:38;8.30;;;2.30;;
30892;SDS011;17595;50.884;4.346;2022-10-23T08:14:04;6.63;;;1.90;;
30892;SDS011;17595;50.884;4.346;2022-10-23T08:16:31;5.25;;;2.08;;
30892;SDS011;17595;50.884;4.346;2022-10-23T08:18:58;6.10;;;2.25;;
30892;SDS011;17595;50.884;4.346;2022-10-23T08:21:24;3.33;;;1.63;;
30892;SDS011;17595;50.884;4.346;2022-10-23T08:23:54;6.20;;;2.42;;
30892;SDS011;17595;50.884;4.346;2022-10-23T08:26:24;6.05;;;2.17;;
30892;SDS011;17595;50.884;4.346;2022-10-23T08:28:53;6.80;;;2.38;;
30892;SDS011;17595;50.884;4.346;2022-10-23T08:31:19;4.50;;;2.00;;
30892;SDS011;17595;50.884;4.346;2022-10-23T08:33:46;4.72;;;2.05;;
30892;SDS011;17595;50.884;4.346;2022-10-23T08:36:16;6.57;;;1.90;;
30892;SDS011;17595;50.884;4.346;2022-10-23T08:38:43;3.55;;;1.90;;
30892;SDS011;17595;50.884;4.346;2022-10-23T08:41:21;6.35;;;3.22;;
30892;SDS011;17595;50.884;4.346;2022-10-23T08:46:17;8.65;;;2.70;;
30892;SDS011;17595;50.884;4.346;2022-10-23T08:48:46;4.18;;;2.60;;
30892;SDS011;17595;50.884;4.346;2022-10-23T08:51:21;5.22;;;2.10;;
30892;SDS011;17595;50.884;4.346;2022-10-23T08:53:55;5.40;;;2.10;;
30892;SDS011;17595;50.884;4.346;2022-10-23T08:56:28;4.63;;;2.30;;
30892;SDS011;17595;50.884;4.346;2022-10-23T08:58:58;5.40;;;2.08;;
30892;SDS011;17595;50.884;4.346;2022-10-23T09:01:36;5.38;;;2.67;;
30892;SDS011;17595;50.884;4.346;2022-10-23T09:04:05;7.40;;;2.28;;
30892;SDS011;17595;50.884;4.346;2022-10-23T09:06:40;6.15;;;2.22;;
30892;SDS011;17595;50.884;4.346;2022-10-23T09:12:38;3.63;;;2.50;;
30892;SDS011;17595;50.884;4.346;2022-10-23T09:17:46;6.35;;;3.03;;
30892;SDS011;17595;50.884;4.346;2022-10-23T09:22:52;7.30;;;2.97;;
30892;SDS011;17595;50.884;4.346;2022-10-23T09:25:27;7.55;;;3.03;;
30892;SDS011;17595;50.884;4.346;2022-10-23T09:27:58;8.30;;;3.15;;
30892;SDS011;17595;50.884;4.346;2022-10-23T09:32:57;5.30;;;2.92;;
30892;SDS011;17595;50.884;4.346;2022-10-23T09:35:49;8.95;;;3.20;;
30892;SDS011;17595;50.884;4.346;2022-10-23T09:38:25;6.18;;;2.70;;
30892;SDS011;17595;50.884;4.346;2022-10-23T09:40:51;8.82;;;3.00;;
30892;SDS011;17595;50.884;4.346;2022-10-23T09:43:18;4.75;;;3.03;;
30892;SDS011;17595;50.884;4.346;2022-10-23T09:45:59;6.85;;;3.00;;
30892;SDS011;17595;50.884;4.346;2022-10-23T09:48:27;9.93;;;3.00;;
30892;SDS011;17595;50.884;4.346;2022-10-23T09:50:54;4.60;;;2.88;;
30892;SDS011;17595;50.884;4.346;2022-10-23T09:53:25;7.47;;;2.90;;
30892;SDS011;17595;50.884;4.346;2022-10-23T09:55:57;5.63;;;2.60;;
30892;SDS011;17595;50.884;4.346;2022-10-23T09:58:30;8.45;;;3.05;;
30892;SDS011;17595;50.884;4.346;2022-10-23T10:01:01;5.55;;;2.85;;
30892;SDS011;17595;50.884;4.346;2022-10-23T10:03:27;6.15;;;2.92;;
30892;SDS011;17595;50.884;4.346;2022-10-23T10:05:57;7.65;;;3.08;;
30892;SDS011;17595;50.884;4.346;2022-10-23T10:38:39;7.90;;;3.30;;
30892;SDS011;17595;50.884;4.346;2022-10-23T10:47:08;6.93;;;3.08;;
30892;SDS011;17595;50.884;4.346;2022-10-23T10:52:38;8.15;;;3.10;;
30892;SDS011;17595;50.884;4.346;2022-10-23T10:55:23;8.50;;;3.20;;
30892;SDS011;17595;50.884;4.346;2022-10-23T10:58:30;13.45;;;3.55;;
30892;SDS011;17595;50.884;4.346;2022-10-23T11:01:04;6.93;;;3.05;;
30892;SDS011;17595;50.884;4.346;2022-10-23T11:04:05;7.32;;;2.97;;
30892;SDS011;17595;50.884;4.346;2022-10-23T11:06:37;4.93;;;2.85;;
30892;SDS011;17595;50.884;4.346;2022-10-23T11:09:24;9.43;;;3.20;;
30892;SDS011;17595;50.884;4.346;2022-10-23T11:11:52;8.35;;;3.97;;
30892;SDS011;17595;50.884;4.346;2022-10-23T11:14:20;7.70;;;3.40;;
30892;SDS011;17595;50.884;4.346;2022-10-23T11:16:48;5.38;;;3.60;;
30892;SDS011;17595;50.884;4.346;2022-10-23T11:19:29;9.77;;;4.03;;
30892;SDS011;17595;50.884;4.346;2022-10-23T11:22:03;11.73;;;4.00;;
30892;SDS011;17595;50.884;4.346;2022-10-23T11:35:59;7.18;;;3.30;;
30892;SDS011;17595;50.884;4.346;2022-10-23T11:40:53;8.63;;;3.33;;
30892;SDS011;17595;50.884;4.346;2022-10-23T11:43:32;6.30;;;3.22;;
30892;SDS011;17595;50.884;4.346;2022-10-23T11:46:14;13.82;;;3.88;;
30892;SDS011;17595;50.884;4.346;2022-10-23T11:48:54;6.55;;;3.08;;
30892;SDS011;17595;50.884;4.346;2022-10-23T11:51:39;7.55;;;3.45;;
30892;SDS011;17595;50.884;4.346;2022-10-23T11:59:35;4.70;;;3.20;;
30892;SDS011;17595;50.884;4.346;2022-10-23T12:02:31;8.20;;;3.92;;
30892;SDS011;17595;50.884;4.346;2022-10-23T12:05:24;5.95;;;3.58;;
30892;SDS011;17595;50.884;4.346;2022-10-23T12:07:55;6.32;;;2.92;;
30892;SDS011;17595;50.884;4.346;2022-10-23T12:10:28;10.95;;;3.38;;
30892;SDS011;17595;50.884;4.346;2022-10-23T12:13:44;6.53;;;3.55;;
30892;SDS011;17595;50.884;4.346;2022-10-23T12:16:09;7.13;;;3.70;;
30892;SDS011;17595;50.884;4.346;2022-10-23T12:18:45;5.18;;;2.80;;
30892;SDS011;17595;50.884;4.346;2022-10-23T12:21:17;7.60;;;3.08;;
30892;SDS011;17595;50.884;4.346;2022-10-23T12:24:01;9.43;;;3.15;;
30892;SDS011;17595;50.884;4.346;2022-10-23T12:26:53;7.80;;;3.17;;
30892;SDS011;17595;50.884;4.346;2022-10-23T12:29:48;3.85;;;2.83;;
30892;SDS011;17595;50.884;4.346;2022-10-23T12:35:16;5.28;;;2.90;;
30892;SDS011;17595;50.884;4.346;2022-10-23T12:40:31;8.55;;;3.92;;
30892;SDS011;17595;50.884;4.346;2022-10-23T12:42:58;8.85;;;3.47;;
30892;SDS011;17595;50.884;4.346;2022-10-23T12:47:55;6.45;;;3.20;;
30892;SDS011;17595;50.884;4.346;2022-10-23T12:50:22;8.25;;;3.72;;
30892;SDS011;17595;50.884;4.346;2022-10-23T12:52:51;8.63;;;3.58;;
30892;SDS011;17595;50.884;4.346;2022-10-23T12:55:48;5.88;;;3.28;;
30892;SDS011;17595;50.884;4.346;2022-10-23T12:58:20;7.72;;;3.92;;
30892;SDS011;17595;50.884;4.346;2022-10-23T13:00:55;9.13;;;3.80;;
30892;SDS011;17595;50.884;4.346;2022-10-23T13:03:23;7.55;;;3.70;;
30892;SDS011;17595;50.884;4.346;2022-10-23T13:05:50;8.75;;;3.15;;
30892;SDS011;17595;50.884;4.346;2022-10-23T13:08:18;8.10;;;3.30;;
30892;SDS011;17595;50.884;4.346;2022-10-23T13:10:45;5.43;;;3.25;;
30892;SDS011;17595;50.884;4.346;2022-10-23T13:13:12;9.32;;;3.92;;
30892;SDS011;17595;50.884;4.346;2022-10-23T13:15:43;8.07;;;3.20;;
30892;SDS011;17595;50.884;4.346;2022-10-23T13:18:10;4.40;;;2.72;;
30892;SDS011;17595;50.884;4.346;2022-10-23T13:20:41;7.15;;;3.38;;
30892;SDS011;17595;50.884;4.346;2022-10-23T13:23:29;7.90;;;2.72;;
30892;SDS011;17595;50.884;4.346;2022-10-23T13:28:27;9.68;;;3.50;;
30892;SDS011;17595;50.884;4.346;2022-10-23T13:30:57;7.78;;;3.17;;
30892;SDS011;17595;50.884;4.346;2022-10-23T13:33:23;7.70;;;2.60;;
30892;SDS011;17595;50.884;4.346;2022-10-23T13:35:54;7.05;;;3.20;;
30892;SDS011;17595;50.884;4.346;2022-10-23T13:38:43;11.48;;;2.83;;
30892;SDS011;17595;50.884;4.346;2022-10-23T13:41:27;6.68;;;3.13;;
30892;SDS011;17595;50.884;4.346;2022-10-23T13:44:07;6.78;;;2.45;;
30892;SDS011;17595;50.884;4.346;2022-10-23T13:46:38;5.55;;;2.85;;
30892;SDS011;17595;50.884;4.346;2022-10-23T13:49:04;5.20;;;2.75;;
30892;SDS011;17595;50.884;4.346;2022-10-23T13:51:31;5.90;;;2.95;;
30892;SDS011;17595;50.884;4.346;2022-10-23T13:54:00;6.43;;;3.72;;
30892;SDS011;17595;50.884;4.346;2022-10-23T13:56:26;5.47;;;3.22;;
30892;SDS011;17595;50.884;4.346;2022-10-23T13:58:52;7.55;;;2.80;;
30892;SDS011;17595;50.884;4.346;2022-10-23T14:03:46;9.05;;;3.78;;
30892;SDS011;17595;50.884;4.346;2022-10-23T14:06:11;6.97;;;3.30;;
30892;SDS011;17595;50.884;4.346;2022-10-23T14:08:37;7.40;;;3.20;;
30892;SDS011;17595;50.884;4.346;2022-10-23T14:11:02;6.88;;;4.00;;
30892;SDS011;17595;50.884;4.346;2022-10-23T14:13:28;5.50;;;3.20;;
30892;SDS011;17595;50.884;4.346;2022-10-23T14:15:54;9.90;;;4.20;;
30892;SDS011;17595;50.884;4.346;2022-10-23T14:18:20;7.60;;;4.63;;
30892;SDS011;17595;50.884;4.346;2022-10-23T14:20:46;11.48;;;5.40;;
30892;SDS011;17595;50.884;4.346;2022-10-23T14:23:11;8.68;;;4.65;;
30892;SDS011;17595;50.884;4.346;2022-10-23T14:25:37;8.07;;;3.97;;
30892;SDS011;17595;50.884;4.346;2022-10-23T14:28:03;8.52;;;4.32;;
30892;SDS011;17595;50.884;4.346;2022-10-23T14:30:28;9.50;;;4.57;;
30892;SDS011;17595;50.884;4.346;2022-10-23T14:32:54;8.85;;;3.70;;
30892;SDS011;17595;50.884;4.346;2022-10-23T14:35:19;9.80;;;4.10;;
30892;SDS011;17595;50.884;4.346;2022-10-23T14:37:45;10.02;;;4.00;;
30892;SDS011;17595;50.884;4.346;2022-10-23T14:40:10;11.02;;;3.78;;
30892;SDS011;17595;50.884;4.346;2022-10-23T14:42:36;7.65;;;3.80;;
30892;SDS011;17595;50.884;4.346;2022-10-23T14:45:02;9.20;;;4.50;;
30892;SDS011;17595;50.884;4.346;2022-10-23T14:47:28;7.00;;;4.32;;
30892;SDS011;17595;50.884;4.346;2022-10-23T14:49:54;9.13;;;4.78;;
30892;SDS011;17595;50.884;4.346;2022-10-23T14:52:20;6.68;;;3.90;;
30892;SDS011;17595;50.884;4.346;2022-10-23T14:54:46;10.65;;;3.72;;
30892;SDS011;17595;50.884;4.346;2022-10-23T14:57:12;6.82;;;4.03;;
30892;SDS011;17595;50.884;4.346;2022-10-23T14:59:40;7.05;;;3.20;;
30892;SDS011;17595;50.884;4.346;2022-10-23T15:02:08;5.35;;;3.58;;
30892;SDS011;17595;50.884;4.346;2022-10-23T15:04:37;8.20;;;4.05;;
30892;SDS011;17595;50.884;4.346;2022-10-23T15:07:03;7.47;;;3.30;;
30892;SDS011;17595;50.884;4.346;2022-10-23T15:09:29;10.70;;;4.43;;
30892;SDS011;17595;50.884;4.346;2022-10-23T15:12:00;8.07;;;4.35;;
30892;SDS011;17595;50.884;4.346;2022-10-23T15:14:30;7.95;;;3.40;;
30892;SDS011;17595;50.884;4.346;2022-10-23T15:16:55;7.03;;;3.90;;
30892;SDS011;17595;50.884;4.346;2022-10-23T15:19:21;11.10;;;4.90;;
30892;SDS011;17595;50.884;4.346;2022-10-23T15:21:47;11.10;;;3.85;;
30892;SDS011;17595;50.884;4.346;2022-10-23T15:24:13;7.00;;;3.67;;
30892;SDS011;17595;50.884;4.346;2022-10-23T15:26:40;8.63;;;3.42;;
30892;SDS011;17595;50.884;4.346;2022-10-23T15:29:07;9.63;;;3.65;;
30892;SDS011;17595;50.884;4.346;2022-10-23T15:34:05;8.45;;;4.15;;
30892;SDS011;17595;50.884;4.346;2022-10-23T15:36:36;7.78;;;3.88;;
30892;SDS011;17595;50.884;4.346;2022-10-23T15:39:04;9.07;;;3.88;;
30892;SDS011;17595;50.884;4.346;2022-10-23T15:41:33;7.07;;;3.22;;
30892;SDS011;17595;50.884;4.346;2022-10-23T15:44:00;9.35;;;3.78;;
30892;SDS011;17595;50.884;4.346;2022-10-23T15:46:27;10.55;;;3.88;;
30892;SDS011;17595;50.884;4.346;2022-10-23T15:48:53;7.03;;;3.75;;
30892;SDS011;17595;50.884;4.346;2022-10-23T15:51:19;8.40;;;3.30;;
30892;SDS011;17595;50.884;4.346;2022-10-23T15:53:45;8.50;;;4.18;;
30892;SDS011;17595;50.884;4.346;2022-10-23T15:56:10;12.07;;;4.70;;
30892;SDS011;17595;50.884;4.346;2022-10-23T15:58:36;9.65;;;5.82;;
30892;SDS011;17595;50.884;4.346;2022-10-23T16:01:02;8.80;;;5.30;;
30892;SDS011;17595;50.884;4.346;2022-10-23T16:03:32;11.90;;;5.93;;
30892;SDS011;17595;50.884;4.346;2022-10-23T16:05:59;11.95;;;5.70;;
30892;SDS011;17595;50.884;4.346;2022-10-23T16:08:30;11.70;;;5.63;;
30892;SDS011;17595;50.884;4.346;2022-10-23T16:10:56;11.98;;;6.00;;
30892;SDS011;17595;50.884;4.346;2022-10-23T16:13:23;8.68;;;5.95;;
30892;SDS011;17595;50.884;4.346;2022-10-23T16:15:49;9.20;;;5.80;;
30892;SDS011;17595;50.884;4.346;2022-10-23T16:18:16;12.00;;;7.05;;
30892;SDS011;17595;50.884;4.346;2022-10-23T16:20:42;8.95;;;5.13;;
30892;SDS011;17595;50.884;4.346;2022-10-23T16:23:08;12.15;;;5.90;;
30892;SDS011;17595;50.884;4.346;2022-10-23T16:25:34;12.95;;;5.78;;
30892;SDS011;17595;50.884;4.346;2022-10-23T16:28:00;7.82;;;4.15;;
30892;SDS011;17595;50.884;4.346;2022-10-23T16:30:26;8.68;;;4.50;;
30892;SDS011;17595;50.884;4.346;2022-10-23T16:32:53;6.63;;;4.10;;
30892;SDS011;17595;50.884;4.346;2022-10-23T16:35:19;9.98;;;4.78;;
30892;SDS011;17595;50.884;4.346;2022-10-23T16:37:45;9.57;;;4.13;;
30892;SDS011;17595;50.884;4.346;2022-10-23T16:40:11;11.32;;;5.00;;
30892;SDS011;17595;50.884;4.346;2022-10-23T16:42:37;10.52;;;4.50;;
30892;SDS011;17595;50.884;4.346;2022-10-23T16:45:04;10.40;;;5.30;;